Terminal Aerodrome Forecast
Issued by NWS

Home | Current Version | Previous Version | Text Only | Print | Product List | Glossary On
Versions: 1 2 3 4 5 6 7 8 9 10 11 12 13 14 15 16 17 18 19 20 21 22 23 24 25 26 27 28 29 30 31 32
000
FTUS45 KGJT 251134
TAFTEX
TAF
KTEX 251134Z 2512/2612 21008G16KT P6SM OVC100
     FM251400 21010G20KT P6SM SCT110 BKN200
     FM251600 22015G30KT P6SM SCT070 BKN140
     FM251900 22015G30KT P6SM VCTS SCT080CB BKN140
     FM252200 23015G30KT P6SM VCSH BKN100
     FM260300 23007KT P6SM VCSH BKN080=

USA.gov is the U.S. government's official web portal to all federal, state and local government web resources and services.